createdAt,value
2024-05-09T00:00:18.475Z,6.33
2024-05-09T00:02:52.443Z,7.10
2024-05-09T00:05:18.803Z,7.24
2024-05-09T00:07:45.130Z,7.39
2024-05-09T00:10:18.301Z,7.63
2024-05-09T00:12:51.718Z,7.68
2024-05-09T00:15:18.003Z,8.20
2024-05-09T00:17:44.485Z,8.22
2024-05-09T00:20:17.633Z,8.40
2024-05-09T00:22:50.264Z,8.49
2024-05-09T00:25:16.665Z,8.63
2024-05-09T00:27:42.931Z,8.64
2024-05-09T00:30:14.348Z,8.62
2024-05-09T00:32:44.041Z,8.71
2024-05-09T00:35:10.414Z,8.75
2024-05-09T00:37:36.692Z,8.73
2024-05-09T00:40:03.547Z,8.79
2024-05-09T00:42:29.906Z,8.78
2024-05-09T00:44:56.211Z,8.77
2024-05-09T00:47:22.726Z,8.73
2024-05-09T00:49:49.236Z,8.72
2024-05-09T00:52:15.646Z,8.78
2024-05-09T00:54:41.958Z,8.78
2024-05-09T00:57:08.225Z,8.92
2024-05-09T00:59:34.610Z,8.34
2024-05-09T01:02:01.040Z,8.34
2024-05-09T01:04:27.441Z,7.78
2024-05-09T01:06:53.754Z,7.72
2024-05-09T01:09:20.038Z,8.16
2024-05-09T01:11:46.495Z,7.68
2024-05-09T01:14:12.884Z,7.71
2024-05-09T01:16:39.186Z,7.83
2024-05-09T01:19:05.593Z,8.10
2024-05-09T01:21:31.907Z,8.30
2024-05-09T01:23:58.193Z,8.23
2024-05-09T01:26:24.564Z,8.35
2024-05-09T01:28:50.977Z,8.41
2024-05-09T01:31:17.301Z,8.47
2024-05-09T01:33:43.720Z,8.20
2024-05-09T01:36:10.082Z,7.91
2024-05-09T01:38:36.451Z,7.70
2024-05-09T01:41:02.891Z,7.72
2024-05-09T01:43:29.224Z,7.94
2024-05-09T01:45:55.480Z,8.16
2024-05-09T01:48:21.896Z,8.27
2024-05-09T01:50:48.269Z,8.32
2024-05-09T01:53:15.286Z,8.34
2024-05-09T01:55:41.769Z,8.44
2024-05-09T01:58:08.031Z,8.35
2024-05-09T02:00:39.538Z,8.31
2024-05-09T02:03:08.522Z,8.25
2024-05-09T02:05:35.187Z,7.42
2024-05-09T02:08:01.583Z,6.54
2024-05-09T02:10:32.483Z,7.08
2024-05-09T02:12:59.657Z,6.98
2024-05-09T02:15:25.934Z,7.21
2024-05-09T02:17:52.424Z,7.36
2024-05-09T02:20:27.444Z,7.77
2024-05-09T02:23:00.175Z,8.03
2024-05-09T02:25:26.478Z,8.08
2024-05-09T02:27:52.747Z,8.15
2024-05-09T02:30:26.318Z,8.23
2024-05-09T02:33:04.293Z,8.20
2024-05-09T02:35:30.747Z,8.27
2024-05-09T02:37:57.088Z,8.28
2024-05-09T02:40:33.039Z,8.33
2024-05-09T02:43:03.374Z,8.43
2024-05-09T02:45:29.634Z,8.39
2024-05-09T02:47:56.135Z,8.46
2024-05-09T02:50:29.990Z,8.43
2024-05-09T02:53:06.342Z,8.39
2024-05-09T02:55:32.980Z,8.55
2024-05-09T02:57:59.538Z,8.42
2024-05-09T03:00:34.658Z,8.62
2024-05-09T03:03:05.821Z,8.52
2024-05-09T03:05:32.562Z,8.41
2024-05-09T03:07:58.928Z,8.48
2024-05-09T03:10:28.660Z,8.34
2024-05-09T03:12:55.575Z,8.40
2024-05-09T03:15:22.132Z,8.28
2024-05-09T03:17:48.598Z,8.25
2024-05-09T03:20:20.683Z,8.29
2024-05-09T03:22:52.162Z,8.45
2024-05-09T03:25:19.728Z,8.51
2024-05-09T03:27:46.010Z,8.47
2024-05-09T03:30:18.381Z,8.47
2024-05-09T03:32:48.562Z,8.22
2024-05-09T03:35:15.089Z,8.20
2024-05-09T03:37:41.450Z,8.26
2024-05-09T03:40:11.799Z,8.26
2024-05-09T03:42:41.040Z,8.26
2024-05-09T03:45:07.310Z,8.23
2024-05-09T03:47:33.773Z,8.33
2024-05-09T03:50:00.272Z,8.14
2024-05-09T03:52:26.574Z,8.09
2024-05-09T03:54:52.903Z,7.89
2024-05-09T03:57:19.169Z,7.82
2024-05-09T03:59:45.426Z,7.50
2024-05-09T04:02:11.884Z,7.18
2024-05-09T04:04:38.263Z,6.75
2024-05-09T04:07:04.600Z,6.62
2024-05-09T04:09:30.881Z,6.56
2024-05-09T04:11:57.338Z,6.25
2024-05-09T04:14:23.697Z,6.38
2024-05-09T04:16:50.095Z,6.31
2024-05-09T04:19:16.610Z,6.06
2024-05-09T04:21:42.961Z,6.19
2024-05-09T04:24:09.230Z,6.19
2024-05-09T04:26:35.620Z,6.22
2024-05-09T04:29:02.069Z,5.85
2024-05-09T04:31:28.390Z,5.87
2024-05-09T04:33:54.802Z,5.93
2024-05-09T04:36:21.216Z,5.76
2024-05-09T04:38:47.507Z,5.62
2024-05-09T04:41:13.903Z,5.81
2024-05-09T04:43:40.227Z,5.51
2024-05-09T04:46:06.502Z,5.50
2024-05-09T04:48:32.818Z,5.29
2024-05-09T04:50:59.153Z,5.34
2024-05-09T04:53:25.508Z,5.25
2024-05-09T04:55:51.893Z,5.49
2024-05-09T04:58:18.223Z,5.24
2024-05-09T05:00:44.549Z,5.38
2024-05-09T05:03:13.446Z,5.29
2024-05-09T05:05:42.021Z,5.30
2024-05-09T05:08:08.430Z,5.41
2024-05-09T05:10:36.582Z,5.31
2024-05-09T05:13:06.163Z,5.47
2024-05-09T05:15:32.445Z,5.49
2024-05-09T05:17:58.931Z,5.37
2024-05-09T05:20:32.679Z,5.37
2024-05-09T05:23:00.146Z,5.40
2024-05-09T05:25:26.500Z,5.49
2024-05-09T05:27:52.791Z,5.44
2024-05-09T05:30:24.987Z,5.51
2024-05-09T05:32:55.191Z,5.42
2024-05-09T05:35:21.614Z,5.22
2024-05-09T05:37:47.987Z,5.21
2024-05-09T05:40:24.655Z,5.16
2024-05-09T05:42:54.580Z,5.16
2024-05-09T05:45:20.853Z,4.95
2024-05-09T05:47:47.243Z,5.02
2024-05-09T05:50:23.784Z,5.08
2024-05-09T05:52:54.041Z,5.19
2024-05-09T05:55:20.370Z,5.00
2024-05-09T05:57:46.655Z,4.96
2024-05-09T06:00:21.395Z,5.08
2024-05-09T06:02:51.882Z,5.10
2024-05-09T06:05:18.514Z,5.23
2024-05-09T06:07:44.882Z,5.26
2024-05-09T06:10:17.374Z,5.09
2024-05-09T06:12:47.919Z,5.07
2024-05-09T06:15:14.195Z,5.13
2024-05-09T06:17:40.550Z,5.44
2024-05-09T06:20:13.441Z,5.68
2024-05-09T06:22:46.572Z,5.88
2024-05-09T06:25:12.893Z,5.91
2024-05-09T06:27:39.160Z,5.97
2024-05-09T06:30:08.193Z,6.24
2024-05-09T06:32:36.224Z,6.35
2024-05-09T06:35:02.663Z,6.45
2024-05-09T06:37:28.969Z,6.66
2024-05-09T06:39:55.250Z,6.99
2024-05-09T06:42:21.517Z,7.05
2024-05-09T06:44:47.781Z,7.20
2024-05-09T06:47:14.263Z,7.45
2024-05-09T06:49:40.571Z,7.66
2024-05-09T06:52:06.870Z,7.38
2024-05-09T06:54:33.131Z,7.56
2024-05-09T06:56:59.405Z,7.86
2024-05-09T06:59:25.790Z,7.69
2024-05-09T07:01:52.129Z,7.52
2024-05-09T07:04:18.504Z,6.98
2024-05-09T07:06:44.814Z,7.60
2024-05-09T07:09:11.113Z,7.89
2024-05-09T07:11:37.666Z,8.02
2024-05-09T07:14:04.077Z,8.23
2024-05-09T07:16:30.352Z,8.60
2024-05-09T07:18:56.774Z,9.02
2024-05-09T07:21:23.313Z,9.23
2024-05-09T07:23:49.703Z,9.31
2024-05-09T07:26:16.254Z,9.47
2024-05-09T07:28:42.603Z,9.58
2024-05-09T07:31:08.902Z,9.75
2024-05-09T07:33:35.397Z,10.01
2024-05-09T07:36:01.719Z,9.40
2024-05-09T07:38:28.020Z,9.27
2024-05-09T07:40:54.367Z,9.01
2024-05-09T07:43:20.652Z,9.02
2024-05-09T07:45:52.576Z,9.47
2024-05-09T07:53:38.454Z,9.27
2024-05-09T07:56:06.014Z,9.46
2024-05-09T07:58:32.500Z,9.57
2024-05-09T08:00:58.821Z,9.77
2024-05-09T08:03:25.292Z,10.33
2024-05-09T08:05:51.819Z,10.67
2024-05-09T08:08:18.221Z,11.04
2024-05-09T08:10:44.629Z,11.23
2024-05-09T08:13:11.120Z,11.30
2024-05-09T08:15:37.491Z,11.50
2024-05-09T08:18:03.967Z,11.03
2024-05-09T08:20:33.731Z,11.37
2024-05-09T08:23:01.655Z,11.76
2024-05-09T08:25:28.082Z,11.31
2024-05-09T08:27:54.408Z,10.98
2024-05-09T08:30:25.439Z,11.56
2024-05-09T08:32:58.990Z,11.49
2024-05-09T08:35:25.420Z,11.55
2024-05-09T08:37:51.776Z,12.07
2024-05-09T08:40:24.188Z,12.21
2024-05-09T08:42:57.149Z,12.49
2024-05-09T08:45:23.445Z,12.78
2024-05-09T08:47:49.838Z,12.94
2024-05-09T08:50:28.585Z,11.67
2024-05-09T08:53:04.092Z,12.04
2024-05-09T08:55:30.374Z,12.22
2024-05-09T08:57:56.699Z,11.08
2024-05-09T09:00:33.407Z,11.00
2024-05-09T09:03:03.000Z,10.82
2024-05-09T09:05:29.521Z,10.18
2024-05-09T09:07:55.923Z,10.23
2024-05-09T09:10:29.584Z,9.98
2024-05-09T09:12:58.417Z,9.86
2024-05-09T09:15:24.709Z,9.79
2024-05-09T09:17:51.105Z,9.77
2024-05-09T09:20:23.243Z,9.94
2024-05-09T09:22:55.394Z,9.97
2024-05-09T09:25:21.668Z,10.18
2024-05-09T09:27:48.011Z,9.92
2024-05-09T09:30:27.712Z,9.85
2024-05-09T09:33:00.634Z,10.12
2024-05-09T09:35:26.962Z,10.22
2024-05-09T09:37:53.220Z,10.39
2024-05-09T09:40:22.320Z,10.51
2024-05-09T09:42:51.915Z,10.68
2024-05-09T09:45:18.278Z,10.77
2024-05-09T09:47:44.804Z,11.02
2024-05-09T09:50:14.547Z,11.07
2024-05-09T09:52:43.342Z,10.70
2024-05-09T09:55:09.775Z,10.57
2024-05-09T09:57:36.219Z,11.17
2024-05-09T10:00:05.522Z,11.26
2024-05-09T10:02:33.691Z,11.25
2024-05-09T10:05:00.123Z,11.28
2024-05-09T10:07:26.463Z,11.63
2024-05-09T10:09:52.971Z,11.12
2024-05-09T10:12:19.472Z,10.92
2024-05-09T10:14:45.776Z,11.01
2024-05-09T10:17:12.046Z,11.16
2024-05-09T10:19:38.570Z,10.75
2024-05-09T10:22:04.945Z,10.78
2024-05-09T10:24:31.294Z,11.31
2024-05-09T10:26:57.565Z,11.52
2024-05-09T10:29:23.836Z,11.74
2024-05-09T10:31:50.242Z,12.04
2024-05-09T10:34:16.713Z,12.05
2024-05-09T10:36:43.164Z,11.96
2024-05-09T10:39:09.575Z,12.15
2024-05-09T10:41:35.877Z,12.30
2024-05-09T10:44:03.881Z,12.59
2024-05-09T10:46:30.213Z,12.41
2024-05-09T10:48:56.612Z,12.59
2024-05-09T10:51:23.056Z,12.36
2024-05-09T10:53:49.331Z,12.57
2024-05-09T10:56:15.599Z,12.89
2024-05-09T10:58:41.854Z,12.85
2024-05-09T11:01:08.210Z,12.49
2024-05-09T11:03:34.888Z,12.37
2024-05-09T11:06:01.531Z,12.20
2024-05-09T11:08:27.820Z,12.65
2024-05-09T11:10:54.271Z,12.33
2024-05-09T11:13:20.669Z,13.39
2024-05-09T11:15:47.077Z,12.82
2024-05-09T11:18:13.536Z,12.69
2024-05-09T11:20:40.043Z,13.23
2024-05-09T11:23:06.432Z,12.95
2024-05-09T11:25:32.706Z,13.08
2024-05-09T11:27:59.071Z,12.80
2024-05-09T11:30:31.538Z,13.09
2024-05-09T11:32:58.792Z,13.21
2024-05-09T11:35:25.142Z,13.18
2024-05-09T11:37:51.409Z,13.21
2024-05-09T11:40:25.189Z,12.99
2024-05-09T11:42:54.810Z,13.25
2024-05-09T11:45:21.094Z,13.39
2024-05-09T11:47:47.512Z,13.41
2024-05-09T11:50:22.391Z,13.73
2024-05-09T11:52:53.621Z,13.32
2024-05-09T11:55:19.923Z,13.96
2024-05-09T11:57:46.281Z,14.40
2024-05-09T12:00:18.205Z,14.36
2024-05-09T12:02:51.498Z,13.63
2024-05-09T12:05:18.085Z,14.01
2024-05-09T12:07:44.462Z,14.39
2024-05-09T12:10:16.579Z,14.76
2024-05-09T12:12:45.820Z,14.51
2024-05-09T12:15:12.092Z,14.73
2024-05-09T12:17:38.500Z,14.54
2024-05-09T12:20:09.034Z,14.34
2024-05-09T12:22:37.473Z,14.31
2024-05-09T12:25:03.856Z,14.68
2024-05-09T12:27:30.209Z,14.22
2024-05-09T12:29:56.484Z,14.56
2024-05-09T12:32:22.881Z,14.70
2024-05-09T12:34:49.185Z,14.92
2024-05-09T12:37:15.585Z,15.27
2024-05-09T12:39:41.938Z,15.16
2024-05-09T12:42:08.876Z,15.35
2024-05-09T12:44:35.157Z,15.25
2024-05-09T12:47:01.496Z,15.54
2024-05-09T12:49:27.848Z,15.54
2024-05-09T12:51:54.248Z,15.71
2024-05-09T12:54:20.548Z,16.12
2024-05-09T12:56:46.806Z,15.60
2024-05-09T12:59:13.070Z,15.64
2024-05-09T13:01:39.431Z,15.43
2024-05-09T13:04:05.990Z,15.54
2024-05-09T13:06:32.511Z,16.06
2024-05-09T13:08:58.825Z,16.16
2024-05-09T13:11:25.165Z,16.23
2024-05-09T13:13:51.469Z,16.17
2024-05-09T13:16:17.927Z,16.10
2024-05-09T13:18:44.431Z,16.20
2024-05-09T13:21:10.807Z,15.96
2024-05-09T13:23:37.100Z,16.19
2024-05-09T13:26:03.637Z,16.41
2024-05-09T13:28:29.941Z,16.99
2024-05-09T13:30:56.337Z,17.25
2024-05-09T13:33:22.845Z,17.72
2024-05-09T13:35:50.905Z,17.32
2024-05-09T13:38:17.599Z,16.74
2024-05-09T13:40:44.185Z,15.75
2024-05-09T13:43:10.718Z,15.80
2024-05-09T13:45:37.062Z,15.85
2024-05-09T13:48:03.969Z,15.77
2024-05-09T13:50:34.758Z,16.62
2024-05-09T13:53:02.950Z,16.42
2024-05-09T13:55:29.274Z,16.33
2024-05-09T13:57:55.706Z,15.80
2024-05-09T14:00:37.588Z,15.77
2024-05-09T14:03:08.538Z,15.68
2024-05-09T14:05:35.274Z,15.42
2024-05-09T14:08:01.700Z,15.77
2024-05-09T14:10:31.169Z,16.13
2024-05-09T14:12:58.390Z,16.59
2024-05-09T14:15:24.693Z,16.80
2024-05-09T14:17:51.015Z,16.56
2024-05-09T14:20:27.982Z,16.72
2024-05-09T14:22:57.590Z,16.67
2024-05-09T14:25:23.912Z,16.57
2024-05-09T14:27:50.243Z,16.74
2024-05-09T14:30:22.949Z,17.47
2024-05-09T14:32:57.005Z,17.03
2024-05-09T14:35:23.343Z,16.35
2024-05-09T14:37:49.655Z,16.68
2024-05-09T14:40:30.492Z,15.79
2024-05-09T14:43:04.221Z,15.64
2024-05-09T14:45:30.580Z,15.95
2024-05-09T14:47:57.035Z,15.61
2024-05-09T14:50:28.309Z,15.37
2024-05-09T14:53:01.296Z,15.14
2024-05-09T14:55:27.682Z,15.00
2024-05-09T14:57:54.098Z,15.07
2024-05-09T15:00:26.411Z,15.06
2024-05-09T15:02:59.202Z,15.41
2024-05-09T15:05:25.591Z,15.32
2024-05-09T15:07:51.906Z,15.48
2024-05-09T15:10:26.562Z,16.34
2024-05-09T15:12:59.847Z,16.88
2024-05-09T15:15:26.163Z,17.43
2024-05-09T15:17:52.551Z,16.16
2024-05-09T15:20:27.429Z,15.44
2024-05-09T15:22:59.970Z,16.17
2024-05-09T15:25:27.366Z,16.36
2024-05-09T15:27:53.738Z,15.86
2024-05-09T15:30:28.178Z,15.68
2024-05-09T15:32:57.774Z,15.39
2024-05-09T15:35:24.144Z,15.73
2024-05-09T15:37:50.424Z,15.16
2024-05-09T15:40:26.164Z,14.94
2024-05-09T15:43:01.615Z,15.15
2024-05-09T15:45:27.929Z,15.17
2024-05-09T15:47:54.338Z,15.26
2024-05-09T15:50:28.686Z,15.09
2024-05-09T15:53:02.607Z,14.99
2024-05-09T15:55:28.907Z,14.86
2024-05-09T15:57:55.205Z,14.35
2024-05-09T16:00:28.754Z,14.54
2024-05-09T16:03:04.651Z,15.01
2024-05-09T16:05:31.091Z,14.86
2024-05-09T16:07:57.503Z,14.93
2024-05-09T16:10:29.782Z,15.15
2024-05-09T16:12:58.826Z,15.03
2024-05-09T16:15:25.122Z,14.63
2024-05-09T16:17:51.463Z,14.83
2024-05-09T16:20:29.030Z,14.88
2024-05-09T16:23:03.078Z,14.55
2024-05-09T16:25:29.386Z,14.39
2024-05-09T16:27:55.730Z,14.21
2024-05-09T16:30:28.302Z,14.35
2024-05-09T16:33:00.798Z,14.42
2024-05-09T16:35:27.127Z,14.57
2024-05-09T16:37:53.507Z,14.56
2024-05-09T16:40:29.303Z,14.27
2024-05-09T16:43:01.060Z,14.06
2024-05-09T16:45:27.388Z,13.86
2024-05-09T16:47:53.747Z,13.69
2024-05-09T16:50:26.426Z,14.05
2024-05-09T16:52:57.615Z,13.90
2024-05-09T16:55:24.867Z,13.81
2024-05-09T16:57:51.197Z,14.16
2024-05-09T17:00:25.615Z,14.23
2024-05-09T17:02:58.309Z,13.97
2024-05-09T17:05:24.790Z,13.90
2024-05-09T17:07:51.212Z,14.06
2024-05-09T17:10:26.468Z,14.33
2024-05-09T17:12:58.439Z,14.03
2024-05-09T17:15:24.742Z,14.10
2024-05-09T17:17:51.047Z,14.27
2024-05-09T17:20:28.829Z,14.16
2024-05-09T17:22:59.636Z,14.81
2024-05-09T17:25:26.061Z,14.91
2024-05-09T17:27:52.405Z,14.55
2024-05-09T17:30:28.326Z,14.80
2024-05-09T17:32:58.873Z,14.81
2024-05-09T17:35:25.244Z,14.79
2024-05-09T17:37:51.505Z,15.04
2024-05-09T17:40:27.073Z,15.32
2024-05-09T17:42:57.565Z,15.56
2024-05-09T17:45:23.859Z,15.80
2024-05-09T17:47:50.209Z,14.80
2024-05-09T17:50:23.872Z,14.84
2024-05-09T17:52:54.116Z,14.58
2024-05-09T17:55:20.493Z,14.20
2024-05-09T17:57:46.935Z,15.09
2024-05-09T18:00:17.309Z,15.34
2024-05-09T18:02:44.055Z,15.40
2024-05-09T18:05:10.447Z,15.76
2024-05-09T18:07:36.810Z,15.57
2024-05-09T18:10:03.231Z,15.70
2024-05-09T18:12:30.076Z,15.76
2024-05-09T18:14:56.426Z,15.66
2024-05-09T18:17:25.649Z,15.77
2024-05-09T18:19:52.156Z,15.99
2024-05-09T18:22:18.741Z,15.88
2024-05-09T18:24:45.138Z,15.85
2024-05-09T18:27:11.431Z,15.76
2024-05-09T18:29:37.711Z,15.58
2024-05-09T18:32:04.009Z,15.38
2024-05-09T18:34:30.598Z,15.27
2024-05-09T18:36:57.043Z,14.90
2024-05-09T18:39:23.344Z,14.73
2024-05-09T18:41:49.607Z,14.72
2024-05-09T18:44:15.859Z,14.55
2024-05-09T18:46:42.127Z,14.33
2024-05-09T18:49:08.518Z,14.12
2024-05-09T18:51:34.906Z,13.86
2024-05-09T18:54:01.226Z,13.72
2024-05-09T18:56:27.515Z,13.55
2024-05-09T18:58:53.780Z,13.26
2024-05-09T19:01:20.207Z,13.19
2024-05-09T19:03:46.680Z,13.16
2024-05-09T19:06:13.036Z,13.30
2024-05-09T19:08:39.304Z,13.14
2024-05-09T19:11:05.685Z,13.00
2024-05-09T19:13:32.111Z,12.83
2024-05-09T19:15:58.487Z,12.55
2024-05-09T19:18:24.975Z,12.27
2024-05-09T19:20:51.499Z,12.14
2024-05-09T19:23:17.858Z,11.96
2024-05-09T19:25:44.150Z,11.93
2024-05-09T19:28:10.627Z,11.86
2024-05-09T19:30:40.954Z,11.85
2024-05-09T19:33:09.563Z,11.35
2024-05-09T19:35:36.765Z,11.18
2024-05-09T19:38:03.117Z,11.17
2024-05-09T19:40:32.342Z,10.87
2024-05-09T19:43:00.414Z,10.67
2024-05-09T19:45:26.812Z,10.58
2024-05-09T19:47:53.280Z,10.36
2024-05-09T19:50:26.405Z,10.31
2024-05-09T19:52:58.790Z,10.34
2024-05-09T19:55:25.083Z,10.25
2024-05-09T19:57:51.380Z,10.18
2024-05-09T20:00:22.367Z,10.30
2024-05-09T20:02:55.525Z,10.17
2024-05-09T20:05:22.149Z,10.28
2024-05-09T20:07:48.534Z,10.05
2024-05-09T20:10:23.250Z,10.15
2024-05-09T20:12:52.840Z,10.11
2024-05-09T20:15:19.178Z,9.90
2024-05-09T20:17:45.572Z,10.15
2024-05-09T20:20:20.296Z,10.14
2024-05-09T20:22:54.393Z,9.80
2024-05-09T20:25:20.815Z,9.81
2024-05-09T20:27:47.199Z,9.77
2024-05-09T20:30:20.896Z,9.87
2024-05-09T20:32:51.484Z,9.76
2024-05-09T20:35:17.845Z,9.68
2024-05-09T20:37:44.140Z,9.61
2024-05-09T20:40:15.652Z,9.63
2024-05-09T20:42:47.964Z,9.67
2024-05-09T20:45:14.262Z,9.47
2024-05-09T20:47:40.618Z,9.40
2024-05-09T20:50:13.731Z,9.23
2024-05-09T20:52:46.651Z,9.23
2024-05-09T20:55:13.123Z,9.39
2024-05-09T20:57:39.618Z,9.68
2024-05-09T21:00:09.561Z,9.66
2024-05-09T21:02:41.677Z,9.44
2024-05-09T21:05:08.281Z,9.21
2024-05-09T21:07:34.721Z,9.19
2024-05-09T21:10:01.024Z,9.14
2024-05-09T21:12:27.308Z,9.07
2024-05-09T21:14:53.592Z,9.06
2024-05-09T21:17:19.966Z,8.86
2024-05-09T21:19:46.323Z,8.90
2024-05-09T21:22:12.693Z,8.84
2024-05-09T21:24:39.043Z,8.48
2024-05-09T21:27:05.338Z,8.58
2024-05-09T21:29:31.612Z,8.41
2024-05-09T21:31:57.904Z,8.57
2024-05-09T21:34:24.328Z,8.62
2024-05-09T21:36:50.684Z,8.68
2024-05-09T21:39:16.969Z,8.60
2024-05-09T21:41:43.239Z,8.68
2024-05-09T21:44:09.522Z,8.61
2024-05-09T21:46:35.880Z,8.79
2024-05-09T21:49:04.777Z,8.78
2024-05-09T21:51:31.087Z,8.82
2024-05-09T21:53:57.345Z,8.69
2024-05-09T21:56:23.596Z,8.60
2024-05-09T21:58:49.898Z,8.66
2024-05-09T22:01:16.351Z,8.63
2024-05-09T22:03:42.919Z,8.47
2024-05-09T22:06:09.273Z,8.38
2024-05-09T22:08:35.561Z,8.35
2024-05-09T22:11:02.022Z,8.35
2024-05-09T22:13:28.494Z,8.48
2024-05-09T22:15:54.877Z,8.42
2024-05-09T22:18:21.537Z,8.45
2024-05-09T22:20:47.982Z,8.49
2024-05-09T22:23:14.246Z,8.29
2024-05-09T22:25:40.537Z,8.31
2024-05-09T22:28:06.974Z,8.36
2024-05-09T22:30:37.571Z,8.20
2024-05-09T22:33:06.311Z,7.98
2024-05-09T22:35:32.846Z,7.95
2024-05-09T22:37:59.158Z,7.81
2024-05-09T22:40:37.858Z,7.72
2024-05-09T22:43:11.802Z,7.85
2024-05-09T22:45:38.194Z,7.95
2024-05-09T22:48:04.605Z,7.71
2024-05-09T22:50:33.331Z,7.82
2024-05-09T22:53:00.067Z,7.70
2024-05-09T22:55:26.354Z,7.76
2024-05-09T22:57:52.685Z,7.82
2024-05-09T23:00:21.877Z,7.83
2024-05-09T23:02:52.564Z,7.59
2024-05-09T23:05:18.956Z,7.50
2024-05-09T23:07:45.317Z,7.33
2024-05-09T23:10:17.129Z,7.32
2024-05-09T23:12:47.903Z,7.29
2024-05-09T23:15:14.184Z,7.20
2024-05-09T23:17:40.540Z,7.35
2024-05-09T23:20:08.884Z,7.35
2024-05-09T23:22:37.477Z,7.31
2024-05-09T23:25:03.792Z,7.05
2024-05-09T23:27:32.426Z,6.99
2024-05-09T23:29:58.747Z,6.97
2024-05-09T23:32:25.160Z,6.93
2024-05-09T23:34:51.521Z,7.12
2024-05-09T23:37:17.935Z,7.04
2024-05-09T23:39:44.274Z,7.14
2024-05-09T23:42:10.556Z,7.07
2024-05-09T23:44:36.800Z,7.09
2024-05-09T23:47:03.152Z,7.22
2024-05-09T23:49:29.484Z,6.96
2024-05-09T23:51:55.778Z,6.98
2024-05-09T23:54:22.100Z,6.73
2024-05-09T23:56:48.368Z,6.75
2024-05-09T23:59:14.657Z,6.56
